• Join FlightAware (Why Join?)
  • Login
  • US Flag 
06:47PM EDT


 

Airport Tracker/Info


-or-


 

Live Flight TrackerFlight Track Log ✈ DAL3759 ✈ 02-Jun-2013 ✈ KTVC - KDTW

Flight Track Log - Related Links

Times and Time Zones

All times are in EDT time to prevent confusion due to time zone crossing. See the DAL3759 flight status page for this flight to view local times or setup timezone preferences in your user account.

Time Position Orientation Groundspeed Altitude Reporting Facility
EDT Latitude Longitude Course Direction KTS MPH feet Rate Location/Type
01:46PM 44.6994 -85.6689 213° Southwest 264 304 4,900  Level Minneapolis Center
01:47PM 44.6433 -85.5917 136° Southeast 279 321 7,000 2,580 Climbing Minneapolis Center
01:48PM 44.4782 -85.3101 138° Southeast  Level FlightAware Approximate
01:48PM 44.5681 -85.4883 136° Southeast 306 352 10,200  Level Minneapolis Center
01:49PM 44.4180 -85.2350 138° Southeast  Level FlightAware Approximate
01:49PM 44.4997 -85.3933 135° Southeast 334 384 11,400  Level Minneapolis Center
01:50PM 44.3567 -85.1475 134° Southeast  Level FlightAware Approximate
01:50PM 44.4225 -85.2861 135° Southeast 376 433 13,100  Level Minneapolis Center
01:51PM 44.3447 -85.1786 135° Southeast 391 450 14,800 1,560 Climbing Minneapolis Center
01:52PM 44.2667 -85.0706 135° Southeast 395 455 16,400 1,380 Climbing Minneapolis Center
01:53PM 44.1864 -84.9617 136° Southeast 400 460 17,700 1,200 Climbing Minneapolis Center
01:54PM 44.1039 -84.8489 136° Southeast 410 472 18,900 600 Climbing Minneapolis Center
01:55PM 44.0028 -84.7111 136° Southeast 420 483 19,000  Climbing Minneapolis Center
01:56PM 43.9231 -84.6031 136° Southeast 426 490 19,000  Level Minneapolis Center
01:57PM 43.8389 -84.4886 136° Southeast 426 490 19,000  Level Minneapolis Center
01:58PM 43.7542 -84.3747 136° Southeast 424 488 19,000  Level Minneapolis Center
01:59PM 43.6700 -84.2628 136° Southeast 422 486 19,000  Level Minneapolis Center
02:00PM 43.5850 -84.1503 136° Southeast 423 487 19,000  Level Minneapolis Center
02:01PM 43.4703 -84.0489 147° Southeast 418 481 19,000  Level Minneapolis Center
02:02PM 43.3650 -83.9997 161° South 405 466 19,000  Level Minneapolis Center
02:03PM 43.2589 -83.9511 162° South 404 465 19,000 -660 Level Minneapolis Center
02:04PM 43.1275 -83.8917 162° South 402 463 17,600 -1,620 Descending Cleveland Center
02:05PM 43.0678 -83.8658 162° South 400 460 16,300 -2,100 Descending Cleveland Center
02:05PM 43.0267 -83.8494 164° South 402 463 15,500 -2,160 Descending Cleveland Center
02:06PM 42.9117 -83.7839 157° South 369 425 12,800 -1,800 Descending Cleveland Center
02:07PM 42.8400 -83.7406 156° South 377 434 12,000 -720 Descending Cleveland Center
02:08PM 42.8133 -83.7250 157° South 308 354 12,000 -420 Level Cleveland Center
02:08PM 42.7683 -83.6972 156° South 332 382 11,600 -780 Descending Cleveland Center
02:08PM 42.7519 -83.6878 157° South 250 288 11,300 -1,020 Descending Cleveland Center
02:09PM 42.7047 -83.6572 155° Southeast 285 328 10,600 -1,200 Descending Cleveland Center
02:10PM 42.6822 -83.6422 154° Southeast 254 292 10,000 -1,920 Descending Cleveland Center
02:10PM 42.6392 -83.6144 155° Southeast 263 303 8,700 -2,280 Descending Cleveland Center
02:10PM 42.6292 -83.5944 124° Southeast 262 302 7,900 -2,040 Descending Cleveland Center
02:11PM 42.5931 -83.5419 133° Southeast 252 290 6,700 -1,680 Descending Cleveland Center
02:12PM 42.5811 -83.5214 128° Southeast 255 293 6,200 -720 Descending Cleveland Center
02:12PM 42.5681 -83.4561 105° East 246 283 6,000 -240 Descending Cleveland Center
02:13PM 42.5731 -83.4225 79° East 257 296 6,000  Level Cleveland Center
02:13PM 42.5747 -83.3606 88° East 229 264 6,000  Level Cleveland Center
02:14PM 42.5817 -83.3269 74° East 256 295 6,000 -300 Level Cleveland Center
02:14PM 42.5831 -83.2678 88° East 234 269 5,700 -840 Descending Cleveland Center
02:15PM 42.5900 -83.2428 69° East 214 246 5,200 -1,320 Descending Cleveland Center
02:15PM 42.5792 -83.1717 102° East 194 223 4,000 -660 Descending Cleveland Center
02:17PM 42.5292 -83.1614 171° South 180 207 4,000  Level Cleveland Center
02:18PM 42.4831 -83.1761 193° South 166 191 4,000  Level Cleveland Center
02:19PM 42.4386 -83.2083 208° Southwest 170 196 4,000  Level Cleveland Center
02:20PM 42.3983 -83.2403 210° Southwest 174 200 4,000 -300 Level Cleveland Center
02:21PM 42.3494 -83.2747 208° Southwest 180 207 3,400 -540 Descending Cleveland Center